sensor_id;sensor_type;location;lat;lon;timestamp;temperature;humidity
3727;DHT22;1879;45.876;12.300;2023-06-26T00:00:26;24.30;98.00
3727;DHT22;1879;45.876;12.300;2023-06-26T00:02:53;24.30;98.40
3727;DHT22;1879;45.876;12.300;2023-06-26T00:05:20;24.30;98.60
3727;DHT22;1879;45.876;12.300;2023-06-26T00:07:48;24.30;98.60
3727;DHT22;1879;45.876;12.300;2023-06-26T00:10:15;24.30;98.70
3727;DHT22;1879;45.876;12.300;2023-06-26T00:12:42;24.30;98.60
3727;DHT22;1879;45.876;12.300;2023-06-26T00:15:10;24.30;98.70
3727;DHT22;1879;45.876;12.300;2023-06-26T00:17:37;24.30;98.90
3727;DHT22;1879;45.876;12.300;2023-06-26T00:20:07;24.20;99.10
3727;DHT22;1879;45.876;12.300;2023-06-26T00:22:34;24.20;99.30
3727;DHT22;1879;45.876;12.300;2023-06-26T00:25:03;24.20;99.90
3727;DHT22;1879;45.876;12.300;2023-06-26T00:27:30;24.20;99.90
3727;DHT22;1879;45.876;12.300;2023-06-26T00:29:57;24.20;99.90
3727;DHT22;1879;45.876;12.300;2023-06-26T00:32:24;24.20;99.90
3727;DHT22;1879;45.876;12.300;2023-06-26T00:34:51;24.20;99.90
3727;DHT22;1879;45.876;12.300;2023-06-26T00:37:18;24.20;99.90
3727;DHT22;1879;45.876;12.300;2023-06-26T00:39:47;24.20;99.90
3727;DHT22;1879;45.876;12.300;2023-06-26T00:42:16;24.20;99.90
3727;DHT22;1879;45.876;12.300;2023-06-26T00:44:43;24.30;99.90
3727;DHT22;1879;45.876;12.300;2023-06-26T00:47:11;24.40;99.60
3727;DHT22;1879;45.876;12.300;2023-06-26T00:49:41;24.50;99.40
3727;DHT22;1879;45.876;12.300;2023-06-26T00:52:08;24.50;99.20
3727;DHT22;1879;45.876;12.300;2023-06-26T00:54:36;24.60;99.20
3727;DHT22;1879;45.876;12.300;2023-06-26T00:57:03;24.70;99.20
3727;DHT22;1879;45.876;12.300;2023-06-26T00:59:32;24.70;99.10
3727;DHT22;1879;45.876;12.300;2023-06-26T01:01:59;24.70;99.20
3727;DHT22;1879;45.876;12.300;2023-06-26T01:04:26;24.70;99.00
3727;DHT22;1879;45.876;12.300;2023-06-26T01:06:59;24.70;98.90
3727;DHT22;1879;45.876;12.300;2023-06-26T01:09:26;24.70;99.00
3727;DHT22;1879;45.876;12.300;2023-06-26T01:11:53;24.60;99.10
3727;DHT22;1879;45.876;12.300;2023-06-26T01:14:20;24.60;99.00
3727;DHT22;1879;45.876;12.300;2023-06-26T01:16:50;24.60;98.60
3727;DHT22;1879;45.876;12.300;2023-06-26T01:19:20;24.60;98.60
3727;DHT22;1879;45.876;12.300;2023-06-26T01:21:55;24.60;98.60
3727;DHT22;1879;45.876;12.300;2023-06-26T01:24:25;24.60;98.40
3727;DHT22;1879;45.876;12.300;2023-06-26T01:26:59;24.50;98.30
3727;DHT22;1879;45.876;12.300;2023-06-26T01:29:29;24.50;98.50
3727;DHT22;1879;45.876;12.300;2023-06-26T01:31:56;24.50;98.50
3727;DHT22;1879;45.876;12.300;2023-06-26T01:34:24;24.50;98.70
3727;DHT22;1879;45.876;12.300;2023-06-26T01:36:51;24.50;98.30
3727;DHT22;1879;45.876;12.300;2023-06-26T01:39:19;24.50;98.50
3727;DHT22;1879;45.876;12.300;2023-06-26T01:41:46;24.50;98.40
3727;DHT22;1879;45.876;12.300;2023-06-26T01:44:23;24.50;98.60
3727;DHT22;1879;45.876;12.300;2023-06-26T01:46:59;24.40;98.60
3727;DHT22;1879;45.876;12.300;2023-06-26T01:49:47;24.40;98.40
3727;DHT22;1879;45.876;12.300;2023-06-26T01:52:20;24.40;98.60
3727;DHT22;1879;45.876;12.300;2023-06-26T01:54:54;24.40;98.20
3727;DHT22;1879;45.876;12.300;2023-06-26T01:57:23;24.40;98.50
3727;DHT22;1879;45.876;12.300;2023-06-26T01:59:55;24.40;98.00
3727;DHT22;1879;45.876;12.300;2023-06-26T02:02:24;24.40;97.70
3727;DHT22;1879;45.876;12.300;2023-06-26T02:04:51;24.40;97.50
3727;DHT22;1879;45.876;12.300;2023-06-26T02:07:18;24.30;97.20
3727;DHT22;1879;45.876;12.300;2023-06-26T02:09:45;24.30;97.10
3727;DHT22;1879;45.876;12.300;2023-06-26T02:12:12;24.30;96.80
3727;DHT22;1879;45.876;12.300;2023-06-26T02:14:40;24.30;96.80
3727;DHT22;1879;45.876;12.300;2023-06-26T02:17:08;24.30;96.60
3727;DHT22;1879;45.876;12.300;2023-06-26T02:19:35;24.30;96.50
3727;DHT22;1879;45.876;12.300;2023-06-26T02:22:10;24.30;96.40
3727;DHT22;1879;45.876;12.300;2023-06-26T02:24:37;24.30;96.40
3727;DHT22;1879;45.876;12.300;2023-06-26T02:27:04;24.30;96.30
3727;DHT22;1879;45.876;12.300;2023-06-26T02:29:31;24.30;96.20
3727;DHT22;1879;45.876;12.300;2023-06-26T02:31:58;24.30;96.00
3727;DHT22;1879;45.876;12.300;2023-06-26T02:34:27;24.30;96.00
3727;DHT22;1879;45.876;12.300;2023-06-26T02:36:54;24.30;96.00
3727;DHT22;1879;45.876;12.300;2023-06-26T02:39:21;24.30;95.90
3727;DHT22;1879;45.876;12.300;2023-06-26T02:41:48;24.30;95.90
3727;DHT22;1879;45.876;12.300;2023-06-26T02:44:15;24.30;95.90
3727;DHT22;1879;45.876;12.300;2023-06-26T02:46:43;24.30;95.80
3727;DHT22;1879;45.876;12.300;2023-06-26T02:49:10;24.30;95.80
3727;DHT22;1879;45.876;12.300;2023-06-26T02:51:38;24.30;95.70
3727;DHT22;1879;45.876;12.300;2023-06-26T02:54:05;24.30;96.20
3727;DHT22;1879;45.876;12.300;2023-06-26T02:56:32;24.10;96.80
3727;DHT22;1879;45.876;12.300;2023-06-26T02:58:59;24.10;97.10
3727;DHT22;1879;45.876;12.300;2023-06-26T03:01:26;23.90;97.60
3727;DHT22;1879;45.876;12.300;2023-06-26T03:03:54;23.80;98.00
3727;DHT22;1879;45.876;12.300;2023-06-26T03:06:21;23.70;98.40
3727;DHT22;1879;45.876;12.300;2023-06-26T03:08:49;23.60;98.90
3727;DHT22;1879;45.876;12.300;2023-06-26T03:11:16;23.60;98.80
3727;DHT22;1879;45.876;12.300;2023-06-26T03:13:43;23.60;99.00
3727;DHT22;1879;45.876;12.300;2023-06-26T03:16:10;23.50;99.10
3727;DHT22;1879;45.876;12.300;2023-06-26T03:18:37;23.50;99.40
3727;DHT22;1879;45.876;12.300;2023-06-26T03:21:04;23.40;99.80
3727;DHT22;1879;45.876;12.300;2023-06-26T03:23:32;23.40;99.90
3727;DHT22;1879;45.876;12.300;2023-06-26T03:26:00;23.40;99.90
3727;DHT22;1879;45.876;12.300;2023-06-26T03:28:27;23.40;99.90
3727;DHT22;1879;45.876;12.300;2023-06-26T03:30:54;23.40;99.90
3727;DHT22;1879;45.876;12.300;2023-06-26T03:33:21;23.40;99.90
3727;DHT22;1879;45.876;12.300;2023-06-26T03:35:48;23.40;99.90
3727;DHT22;1879;45.876;12.300;2023-06-26T03:38:15;23.40;99.90
3727;DHT22;1879;45.876;12.300;2023-06-26T03:40:42;23.40;99.90
3727;DHT22;1879;45.876;12.300;2023-06-26T03:43:10;23.40;99.90
3727;DHT22;1879;45.876;12.300;2023-06-26T03:45:37;23.40;99.90
3727;DHT22;1879;45.876;12.300;2023-06-26T03:48:04;23.40;99.90
3727;DHT22;1879;45.876;12.300;2023-06-26T03:50:33;23.40;99.90
3727;DHT22;1879;45.876;12.300;2023-06-26T03:53:00;23.40;99.90
3727;DHT22;1879;45.876;12.300;2023-06-26T03:55:27;23.40;99.90
3727;DHT22;1879;45.876;12.300;2023-06-26T03:57:54;23.40;99.90
3727;DHT22;1879;45.876;12.300;2023-06-26T04:00:22;23.40;99.90
3727;DHT22;1879;45.876;12.300;2023-06-26T04:02:49;23.40;99.90
3727;DHT22;1879;45.876;12.300;2023-06-26T04:05:17;23.40;99.90
3727;DHT22;1879;45.876;12.300;2023-06-26T04:07:44;23.40;99.90
3727;DHT22;1879;45.876;12.300;2023-06-26T04:10:11;23.50;99.90
3727;DHT22;1879;45.876;12.300;2023-06-26T04:12:39;23.50;99.90
3727;DHT22;1879;45.876;12.300;2023-06-26T04:15:07;23.60;99.90
3727;DHT22;1879;45.876;12.300;2023-06-26T04:17:35;23.70;99.90
3727;DHT22;1879;45.876;12.300;2023-06-26T04:20:02;23.70;99.90
3727;DHT22;1879;45.876;12.300;2023-06-26T04:22:31;23.70;99.90
3727;DHT22;1879;45.876;12.300;2023-06-26T04:24:59;23.70;99.90
3727;DHT22;1879;45.876;12.300;2023-06-26T04:27:26;23.70;99.90
3727;DHT22;1879;45.876;12.300;2023-06-26T04:29:53;23.70;99.90
3727;DHT22;1879;45.876;12.300;2023-06-26T04:32:20;23.70;99.90
3727;DHT22;1879;45.876;12.300;2023-06-26T04:34:49;23.70;99.90
3727;DHT22;1879;45.876;12.300;2023-06-26T04:37:16;23.70;99.90
3727;DHT22;1879;45.876;12.300;2023-06-26T04:39:43;23.70;99.90
3727;DHT22;1879;45.876;12.300;2023-06-26T04:42:11;23.80;99.90
3727;DHT22;1879;45.876;12.300;2023-06-26T04:44:38;23.80;99.90
3727;DHT22;1879;45.876;12.300;2023-06-26T04:47:06;23.90;99.90
3727;DHT22;1879;45.876;12.300;2023-06-26T04:49:33;23.90;99.90
3727;DHT22;1879;45.876;12.300;2023-06-26T04:52:02;24.00;99.90
3727;DHT22;1879;45.876;12.300;2023-06-26T04:54:29;24.00;99.90
3727;DHT22;1879;45.876;12.300;2023-06-26T04:56:56;24.10;99.90
3727;DHT22;1879;45.876;12.300;2023-06-26T04:59:23;24.20;99.90
3727;DHT22;1879;45.876;12.300;2023-06-26T05:01:50;24.30;99.90
3727;DHT22;1879;45.876;12.300;2023-06-26T05:04:17;24.30;99.90
3727;DHT22;1879;45.876;12.300;2023-06-26T05:06:44;24.40;99.90
3727;DHT22;1879;45.876;12.300;2023-06-26T05:09:12;24.40;99.90
3727;DHT22;1879;45.876;12.300;2023-06-26T05:11:39;24.50;99.90
3727;DHT22;1879;45.876;12.300;2023-06-26T05:14:06;24.60;99.90
3727;DHT22;1879;45.876;12.300;2023-06-26T05:16:35;24.70;99.90
3727;DHT22;1879;45.876;12.300;2023-06-26T05:19:02;24.70;99.90
3727;DHT22;1879;45.876;12.300;2023-06-26T05:21:29;24.70;99.90
3727;DHT22;1879;45.876;12.300;2023-06-26T05:23:57;24.80;99.90
3727;DHT22;1879;45.876;12.300;2023-06-26T05:26:27;24.90;99.90
3727;DHT22;1879;45.876;12.300;2023-06-26T05:28:55;24.90;99.90
3727;DHT22;1879;45.876;12.300;2023-06-26T05:31:22;24.90;99.90
3727;DHT22;1879;45.876;12.300;2023-06-26T05:33:49;25.00;99.90
3727;DHT22;1879;45.876;12.300;2023-06-26T05:36:18;25.00;99.90
3727;DHT22;1879;45.876;12.300;2023-06-26T05:38:46;25.10;99.90
3727;DHT22;1879;45.876;12.300;2023-06-26T05:41:17;25.20;99.90
3727;DHT22;1879;45.876;12.300;2023-06-26T05:43:45;25.20;99.50
3727;DHT22;1879;45.876;12.300;2023-06-26T05:46:13;25.20;99.30
3727;DHT22;1879;45.876;12.300;2023-06-26T05:48:40;25.30;98.80
3727;DHT22;1879;45.876;12.300;2023-06-26T05:51:08;25.40;98.60
3727;DHT22;1879;45.876;12.300;2023-06-26T05:53:35;25.40;98.30
3727;DHT22;1879;45.876;12.300;2023-06-26T05:56:03;25.50;98.40
3727;DHT22;1879;45.876;12.300;2023-06-26T05:58:30;25.50;98.60
3727;DHT22;1879;45.876;12.300;2023-06-26T06:00:59;25.60;98.00
3727;DHT22;1879;45.876;12.300;2023-06-26T06:03:26;25.70;97.60
3727;DHT22;1879;45.876;12.300;2023-06-26T06:05:53;25.70;98.00
3727;DHT22;1879;45.876;12.300;2023-06-26T06:08:19;25.70;97.20
3727;DHT22;1879;45.876;12.300;2023-06-26T06:10:46;25.80;97.10
3727;DHT22;1879;45.876;12.300;2023-06-26T06:13:13;25.90;96.60
3727;DHT22;1879;45.876;12.300;2023-06-26T06:15:40;25.90;96.80
3727;DHT22;1879;45.876;12.300;2023-06-26T06:18:09;26.00;96.70
3727;DHT22;1879;45.876;12.300;2023-06-26T06:20:36;26.00;96.60
3727;DHT22;1879;45.876;12.300;2023-06-26T06:23:03;26.00;96.10
3727;DHT22;1879;45.876;12.300;2023-06-26T06:25:30;26.00;95.50
3727;DHT22;1879;45.876;12.300;2023-06-26T06:27:57;26.00;95.30
3727;DHT22;1879;45.876;12.300;2023-06-26T06:30:24;26.10;95.30
3727;DHT22;1879;45.876;12.300;2023-06-26T06:32:51;26.10;95.30
3727;DHT22;1879;45.876;12.300;2023-06-26T06:35:19;26.10;94.90
3727;DHT22;1879;45.876;12.300;2023-06-26T06:37:46;26.10;95.00
3727;DHT22;1879;45.876;12.300;2023-06-26T06:40:15;26.20;94.90
3727;DHT22;1879;45.876;12.300;2023-06-26T06:42:42;26.20;94.30
3727;DHT22;1879;45.876;12.300;2023-06-26T06:45:09;26.30;94.50
3727;DHT22;1879;45.876;12.300;2023-06-26T06:47:36;26.30;94.30
3727;DHT22;1879;45.876;12.300;2023-06-26T06:50:04;26.40;94.30
3727;DHT22;1879;45.876;12.300;2023-06-26T06:52:37;26.40;94.00
3727;DHT22;1879;45.876;12.300;2023-06-26T06:55:07;26.50;93.50
3727;DHT22;1879;45.876;12.300;2023-06-26T06:57:35;26.50;92.80
3727;DHT22;1879;45.876;12.300;2023-06-26T07:00:04;26.50;92.90
3727;DHT22;1879;45.876;12.300;2023-06-26T07:02:34;26.50;92.70
3727;DHT22;1879;45.876;12.300;2023-06-26T07:05:01;26.50;92.60
3727;DHT22;1879;45.876;12.300;2023-06-26T07:07:30;26.60;92.50
3727;DHT22;1879;45.876;12.300;2023-06-26T07:09:59;26.60;92.50
3727;DHT22;1879;45.876;12.300;2023-06-26T07:12:26;26.70;92.30
3727;DHT22;1879;45.876;12.300;2023-06-26T07:14:54;26.80;92.20
3727;DHT22;1879;45.876;12.300;2023-06-26T07:17:21;26.80;91.70
3727;DHT22;1879;45.876;12.300;2023-06-26T07:19:49;26.80;92.10
3727;DHT22;1879;45.876;12.300;2023-06-26T07:22:16;26.90;91.70
3727;DHT22;1879;45.876;12.300;2023-06-26T07:24:46;26.90;91.70
3727;DHT22;1879;45.876;12.300;2023-06-26T07:27:14;27.00;91.70
3727;DHT22;1879;45.876;12.300;2023-06-26T07:29:41;27.00;91.40
3727;DHT22;1879;45.876;12.300;2023-06-26T07:32:08;27.00;91.80
3727;DHT22;1879;45.876;12.300;2023-06-26T07:34:38;27.10;91.80
3727;DHT22;1879;45.876;12.300;2023-06-26T07:37:05;27.10;91.40
3727;DHT22;1879;45.876;12.300;2023-06-26T07:39:32;27.10;90.70
3727;DHT22;1879;45.876;12.300;2023-06-26T07:41:59;27.10;90.80
3727;DHT22;1879;45.876;12.300;2023-06-26T07:44:28;27.10;90.80
3727;DHT22;1879;45.876;12.300;2023-06-26T07:46:55;27.10;90.50
3727;DHT22;1879;45.876;12.300;2023-06-26T07:49:22;27.10;90.40
3727;DHT22;1879;45.876;12.300;2023-06-26T07:51:49;27.10;90.70
3727;DHT22;1879;45.876;12.300;2023-06-26T07:54:17;27.10;90.80
3727;DHT22;1879;45.876;12.300;2023-06-26T07:56:53;27.20;90.80
3727;DHT22;1879;45.876;12.300;2023-06-26T07:59:21;27.20;90.90
3727;DHT22;1879;45.876;12.300;2023-06-26T08:01:50;27.20;90.60
3727;DHT22;1879;45.876;12.300;2023-06-26T08:04:18;27.20;90.70
3727;DHT22;1879;45.876;12.300;2023-06-26T08:06:47;27.30;91.20
3727;DHT22;1879;45.876;12.300;2023-06-26T08:09:15;27.30;91.10
3727;DHT22;1879;45.876;12.300;2023-06-26T08:11:42;27.30;91.10
3727;DHT22;1879;45.876;12.300;2023-06-26T08:14:09;27.40;91.10
3727;DHT22;1879;45.876;12.300;2023-06-26T08:16:37;27.30;90.30
3727;DHT22;1879;45.876;12.300;2023-06-26T08:19:06;27.40;90.30
3727;DHT22;1879;45.876;12.300;2023-06-26T08:21:33;27.40;90.80
3727;DHT22;1879;45.876;12.300;2023-06-26T08:24:00;27.40;90.40
3727;DHT22;1879;45.876;12.300;2023-06-26T08:26:27;27.50;90.60
3727;DHT22;1879;45.876;12.300;2023-06-26T08:28:54;27.50;90.60
3727;DHT22;1879;45.876;12.300;2023-06-26T08:31:21;27.60;90.20
3727;DHT22;1879;45.876;12.300;2023-06-26T08:33:48;27.50;90.10
3727;DHT22;1879;45.876;12.300;2023-06-26T08:36:16;27.40;90.00
3727;DHT22;1879;45.876;12.300;2023-06-26T08:38:43;27.40;90.20
3727;DHT22;1879;45.876;12.300;2023-06-26T08:41:10;27.40;90.00
3727;DHT22;1879;45.876;12.300;2023-06-26T08:43:37;27.40;90.00
3727;DHT22;1879;45.876;12.300;2023-06-26T08:46:05;27.40;89.30
3727;DHT22;1879;45.876;12.300;2023-06-26T08:48:33;27.50;89.10
3727;DHT22;1879;45.876;12.300;2023-06-26T08:51:05;27.50;88.10
3727;DHT22;1879;45.876;12.300;2023-06-26T08:53:40;27.50;88.60
3727;DHT22;1879;45.876;12.300;2023-06-26T08:56:11;27.50;89.10
3727;DHT22;1879;45.876;12.300;2023-06-26T08:58:40;27.60;88.00
3727;DHT22;1879;45.876;12.300;2023-06-26T09:01:07;27.70;88.40
3727;DHT22;1879;45.876;12.300;2023-06-26T09:03:35;27.90;89.60
3727;DHT22;1879;45.876;12.300;2023-06-26T09:06:04;28.00;90.00
3727;DHT22;1879;45.876;12.300;2023-06-26T09:08:31;28.10;89.90
3727;DHT22;1879;45.876;12.300;2023-06-26T09:10:59;28.20;89.80
3727;DHT22;1879;45.876;12.300;2023-06-26T09:13:28;28.30;89.70
3727;DHT22;1879;45.876;12.300;2023-06-26T09:15:55;28.30;88.40
3727;DHT22;1879;45.876;12.300;2023-06-26T09:18:23;28.40;88.80
3727;DHT22;1879;45.876;12.300;2023-06-26T09:20:50;28.50;88.60
3727;DHT22;1879;45.876;12.300;2023-06-26T09:23:17;28.50;88.60
3727;DHT22;1879;45.876;12.300;2023-06-26T09:25:47;28.70;88.50
3727;DHT22;1879;45.876;12.300;2023-06-26T09:28:15;28.80;87.50
3727;DHT22;1879;45.876;12.300;2023-06-26T09:30:42;28.90;87.60
3727;DHT22;1879;45.876;12.300;2023-06-26T09:33:15;28.90;86.60
3727;DHT22;1879;45.876;12.300;2023-06-26T09:35:43;29.00;86.80
3727;DHT22;1879;45.876;12.300;2023-06-26T09:38:11;29.00;85.40
3727;DHT22;1879;45.876;12.300;2023-06-26T09:40:38;29.00;84.90
3727;DHT22;1879;45.876;12.300;2023-06-26T09:43:05;29.00;86.70
3727;DHT22;1879;45.876;12.300;2023-06-26T09:45:34;29.00;85.90
3727;DHT22;1879;45.876;12.300;2023-06-26T09:48:02;29.00;85.80
3727;DHT22;1879;45.876;12.300;2023-06-26T09:50:30;29.10;86.40
3727;DHT22;1879;45.876;12.300;2023-06-26T09:53:07;29.20;86.20
3727;DHT22;1879;45.876;12.300;2023-06-26T09:55:35;29.30;85.50
3727;DHT22;1879;45.876;12.300;2023-06-26T09:58:03;29.30;85.60
3727;DHT22;1879;45.876;12.300;2023-06-26T10:00:30;29.30;87.40
3727;DHT22;1879;45.876;12.300;2023-06-26T10:02:59;29.50;85.80
3727;DHT22;1879;45.876;12.300;2023-06-26T10:05:26;29.50;86.10
3727;DHT22;1879;45.876;12.300;2023-06-26T10:07:54;29.60;86.00
3727;DHT22;1879;45.876;12.300;2023-06-26T10:10:23;29.60;83.70
3727;DHT22;1879;45.876;12.300;2023-06-26T10:12:54;29.70;84.20
3727;DHT22;1879;45.876;12.300;2023-06-26T10:15:27;29.80;84.00
3727;DHT22;1879;45.876;12.300;2023-06-26T10:17:56;29.90;84.60
3727;DHT22;1879;45.876;12.300;2023-06-26T10:20:25;30.10;84.10
3727;DHT22;1879;45.876;12.300;2023-06-26T10:22:55;30.20;83.50
3727;DHT22;1879;45.876;12.300;2023-06-26T10:25:25;30.30;83.50
3727;DHT22;1879;45.876;12.300;2023-06-26T10:27:54;30.50;83.50
3727;DHT22;1879;45.876;12.300;2023-06-26T10:30:26;30.50;82.20
3727;DHT22;1879;45.876;12.300;2023-06-26T10:32:54;30.50;81.60
3727;DHT22;1879;45.876;12.300;2023-06-26T10:35:24;30.50;80.70
3727;DHT22;1879;45.876;12.300;2023-06-26T10:37:51;30.50;79.70
3727;DHT22;1879;45.876;12.300;2023-06-26T10:40:24;30.40;79.30
3727;DHT22;1879;45.876;12.300;2023-06-26T10:43:05;30.50;78.00
3727;DHT22;1879;45.876;12.300;2023-06-26T10:45:34;30.60;80.30
3727;DHT22;1879;45.876;12.300;2023-06-26T10:48:01;30.70;79.00
3727;DHT22;1879;45.876;12.300;2023-06-26T10:50:30;30.70;77.50
3727;DHT22;1879;45.876;12.300;2023-06-26T10:53:13;30.80;78.60
3727;DHT22;1879;45.876;12.300;2023-06-26T10:55:42;30.90;77.70
3727;DHT22;1879;45.876;12.300;2023-06-26T10:58:27;31.00;75.40
3727;DHT22;1879;45.876;12.300;2023-06-26T11:01:19;30.70;77.50
3727;DHT22;1879;45.876;12.300;2023-06-26T11:03:48;31.00;76.60
3727;DHT22;1879;45.876;12.300;2023-06-26T11:06:20;31.20;78.20
3727;DHT22;1879;45.876;12.300;2023-06-26T11:08:48;31.30;77.30
3727;DHT22;1879;45.876;12.300;2023-06-26T11:11:19;31.10;75.40
3727;DHT22;1879;45.876;12.300;2023-06-26T11:13:47;31.20;75.40
3727;DHT22;1879;45.876;12.300;2023-06-26T11:16:15;31.30;75.20
3727;DHT22;1879;45.876;12.300;2023-06-26T11:18:42;31.50;75.90
3727;DHT22;1879;45.876;12.300;2023-06-26T11:21:12;31.70;76.90
3727;DHT22;1879;45.876;12.300;2023-06-26T11:23:46;32.00;77.60
3727;DHT22;1879;45.876;12.300;2023-06-26T11:26:19;32.10;74.80
3727;DHT22;1879;45.876;12.300;2023-06-26T11:28:49;31.90;73.10
3727;DHT22;1879;45.876;12.300;2023-06-26T11:31:26;32.00;72.60
3727;DHT22;1879;45.876;12.300;2023-06-26T11:33:56;32.00;74.60
3727;DHT22;1879;45.876;12.300;2023-06-26T11:36:24;32.00;73.90
3727;DHT22;1879;45.876;12.300;2023-06-26T11:38:57;32.10;74.20
3727;DHT22;1879;45.876;12.300;2023-06-26T11:41:26;32.10;73.70
3727;DHT22;1879;45.876;12.300;2023-06-26T11:43:53;32.30;73.80
3727;DHT22;1879;45.876;12.300;2023-06-26T11:46:21;32.40;73.50
3727;DHT22;1879;45.876;12.300;2023-06-26T11:48:49;32.50;72.40
3727;DHT22;1879;45.876;12.300;2023-06-26T11:51:16;32.40;68.30
3727;DHT22;1879;45.876;12.300;2023-06-26T11:53:44;32.60;70.40
3727;DHT22;1879;45.876;12.300;2023-06-26T11:56:14;32.90;69.60
3727;DHT22;1879;45.876;12.300;2023-06-26T11:58:59;33.00;68.30
3727;DHT22;1879;45.876;12.300;2023-06-26T12:01:32;33.30;68.30
3727;DHT22;1879;45.876;12.300;2023-06-26T12:04:01;33.60;68.00
3727;DHT22;1879;45.876;12.300;2023-06-26T12:06:29;34.00;67.70
3727;DHT22;1879;45.876;12.300;2023-06-26T12:08:58;34.40;66.80
3727;DHT22;1879;45.876;12.300;2023-06-26T12:11:28;34.90;66.20
3727;DHT22;1879;45.876;12.300;2023-06-26T12:13:56;35.10;64.10
3727;DHT22;1879;45.876;12.300;2023-06-26T12:16:24;35.10;63.40
3727;DHT22;1879;45.876;12.300;2023-06-26T12:18:51;35.00;64.40
3727;DHT22;1879;45.876;12.300;2023-06-26T12:21:47;35.10;64.90
3727;DHT22;1879;45.876;12.300;2023-06-26T12:24:19;35.20;63.30
3727;DHT22;1879;45.876;12.300;2023-06-26T12:26:50;35.50;62.60
3727;DHT22;1879;45.876;12.300;2023-06-26T12:29:19;35.20;61.80
3727;DHT22;1879;45.876;12.300;2023-06-26T12:31:49;35.00;62.80
3727;DHT22;1879;45.876;12.300;2023-06-26T12:34:18;35.10;63.00
3727;DHT22;1879;45.876;12.300;2023-06-26T12:36:47;35.50;62.70
3727;DHT22;1879;45.876;12.300;2023-06-26T12:39:16;35.90;62.10
3727;DHT22;1879;45.876;12.300;2023-06-26T12:41:48;36.10;61.30
3727;DHT22;1879;45.876;12.300;2023-06-26T12:44:19;36.00;59.60
3727;DHT22;1879;45.876;12.300;2023-06-26T12:46:48;35.50;58.10
3727;DHT22;1879;45.876;12.300;2023-06-26T12:49:15;35.10;58.50
3727;DHT22;1879;45.876;12.300;2023-06-26T12:51:43;34.70;57.90
3727;DHT22;1879;45.876;12.300;2023-06-26T12:54:10;34.70;58.70
3727;DHT22;1879;45.876;12.300;2023-06-26T12:56:37;34.80;59.70
3727;DHT22;1879;45.876;12.300;2023-06-26T12:59:06;34.70;58.70
3727;DHT22;1879;45.876;12.300;2023-06-26T13:01:33;34.90;58.70
3727;DHT22;1879;45.876;12.300;2023-06-26T13:04:00;35.20;58.10
3727;DHT22;1879;45.876;12.300;2023-06-26T13:06:27;35.30;58.60
3727;DHT22;1879;45.876;12.300;2023-06-26T13:08:54;35.50;58.10
3727;DHT22;1879;45.876;12.300;2023-06-26T13:11:21;35.70;58.30
3727;DHT22;1879;45.876;12.300;2023-06-26T13:13:48;35.60;57.60
3727;DHT22;1879;45.876;12.300;2023-06-26T13:16:17;35.50;57.70
3727;DHT22;1879;45.876;12.300;2023-06-26T13:18:45;35.20;58.00
3727;DHT22;1879;45.876;12.300;2023-06-26T13:21:13;35.30;58.50
3727;DHT22;1879;45.876;12.300;2023-06-26T13:23:40;35.40;58.10
3727;DHT22;1879;45.876;12.300;2023-06-26T13:26:07;35.30;58.20
3727;DHT22;1879;45.876;12.300;2023-06-26T13:28:35;35.20;58.40
3727;DHT22;1879;45.876;12.300;2023-06-26T13:31:05;35.50;59.60
3727;DHT22;1879;45.876;12.300;2023-06-26T13:33:34;35.50;58.30
3727;DHT22;1879;45.876;12.300;2023-06-26T13:36:01;35.90;58.20
3727;DHT22;1879;45.876;12.300;2023-06-26T13:38:32;36.20;58.20
3727;DHT22;1879;45.876;12.300;2023-06-26T13:40:59;36.40;58.60
3727;DHT22;1879;45.876;12.300;2023-06-26T13:43:28;36.60;57.30
3727;DHT22;1879;45.876;12.300;2023-06-26T13:45:55;36.40;55.70
3727;DHT22;1879;45.876;12.300;2023-06-26T13:48:22;35.90;55.60
3727;DHT22;1879;45.876;12.300;2023-06-26T13:50:53;35.70;55.80
3727;DHT22;1879;45.876;12.300;2023-06-26T13:53:20;35.80;56.80
3727;DHT22;1879;45.876;12.300;2023-06-26T13:55:47;36.00;57.20
3727;DHT22;1879;45.876;12.300;2023-06-26T13:58:15;36.20;57.00
3727;DHT22;1879;45.876;12.300;2023-06-26T14:00:42;36.30;56.50
3727;DHT22;1879;45.876;12.300;2023-06-26T14:03:11;36.50;56.40
3727;DHT22;1879;45.876;12.300;2023-06-26T14:05:38;36.30;55.80
3727;DHT22;1879;45.876;12.300;2023-06-26T14:08:08;36.20;56.40
3727;DHT22;1879;45.876;12.300;2023-06-26T14:10:36;36.10;55.30
3727;DHT22;1879;45.876;12.300;2023-06-26T14:13:04;36.20;55.40
3727;DHT22;1879;45.876;12.300;2023-06-26T14:15:33;36.40;55.20
3727;DHT22;1879;45.876;12.300;2023-06-26T14:18:01;36.60;55.20
3727;DHT22;1879;45.876;12.300;2023-06-26T14:20:28;36.70;54.20
3727;DHT22;1879;45.876;12.300;2023-06-26T14:22:58;37.10;54.00
3727;DHT22;1879;45.876;12.300;2023-06-26T14:25:27;37.10;53.90
3727;DHT22;1879;45.876;12.300;2023-06-26T14:27:55;36.40;52.50
3727;DHT22;1879;45.876;12.300;2023-06-26T14:30:22;36.40;53.40
3727;DHT22;1879;45.876;12.300;2023-06-26T14:32:50;36.50;53.40
3727;DHT22;1879;45.876;12.300;2023-06-26T14:35:17;36.70;53.20
3727;DHT22;1879;45.876;12.300;2023-06-26T14:37:44;37.10;52.60
3727;DHT22;1879;45.876;12.300;2023-06-26T14:40:12;37.20;51.70
3727;DHT22;1879;45.876;12.300;2023-06-26T14:42:40;37.40;52.90
3727;DHT22;1879;45.876;12.300;2023-06-26T14:45:09;36.90;53.10
3727;DHT22;1879;45.876;12.300;2023-06-26T14:47:37;36.20;52.70
3727;DHT22;1879;45.876;12.300;2023-06-26T14:50:05;36.10;53.60
3727;DHT22;1879;45.876;12.300;2023-06-26T14:52:32;36.00;53.10
3727;DHT22;1879;45.876;12.300;2023-06-26T14:54:59;36.10;52.60
3727;DHT22;1879;45.876;12.300;2023-06-26T14:57:26;36.10;52.60
3727;DHT22;1879;45.876;12.300;2023-06-26T14:59:54;36.10;53.20
3727;DHT22;1879;45.876;12.300;2023-06-26T15:02:21;36.30;53.50
3727;DHT22;1879;45.876;12.300;2023-06-26T15:04:48;36.60;53.00
3727;DHT22;1879;45.876;12.300;2023-06-26T15:07:15;36.30;53.20
3727;DHT22;1879;45.876;12.300;2023-06-26T15:09:42;36.20;52.90
3727;DHT22;1879;45.876;12.300;2023-06-26T15:12:09;36.10;53.10
3727;DHT22;1879;45.876;12.300;2023-06-26T15:14:36;36.10;53.30
3727;DHT22;1879;45.876;12.300;2023-06-26T15:17:05;35.80;52.90
3727;DHT22;1879;45.876;12.300;2023-06-26T15:19:33;36.00;53.10
3727;DHT22;1879;45.876;12.300;2023-06-26T15:22:00;36.20;53.30
3727;DHT22;1879;45.876;12.300;2023-06-26T15:24:27;36.30;54.50
3727;DHT22;1879;45.876;12.300;2023-06-26T15:26:54;36.50;54.60
3727;DHT22;1879;45.876;12.300;2023-06-26T15:29:22;36.40;53.10
3727;DHT22;1879;45.876;12.300;2023-06-26T15:31:49;36.30;52.50
3727;DHT22;1879;45.876;12.300;2023-06-26T15:34:17;36.00;52.40
3727;DHT22;1879;45.876;12.300;2023-06-26T15:36:44;36.20;52.70
3727;DHT22;1879;45.876;12.300;2023-06-26T15:39:11;36.20;53.10
3727;DHT22;1879;45.876;12.300;2023-06-26T15:41:38;36.20;52.90
3727;DHT22;1879;45.876;12.300;2023-06-26T15:44:05;36.00;53.30
3727;DHT22;1879;45.876;12.300;2023-06-26T15:46:32;35.70;54.20
3727;DHT22;1879;45.876;12.300;2023-06-26T15:48:59;35.50;53.60
3727;DHT22;1879;45.876;12.300;2023-06-26T15:51:27;35.60;53.90